Time;durP1;ratioP1;P1;durP2;ratioP2;P2;SDS_P1;SDS_P2;PMS_P1;PMS_P2;Temp;Humidity;BMP_temperature;BMP_pressure;BME280_temperature;BME280_humidity;BME280_pressure;Samples;Min_cycle;Max_cycle;Signal;HPM_P1;HPM_P2
2021/11/06 00:01:44;;;;;;;15.98;13.73;;;;;;;8.74;68.68;101166.97;5032591;28;98047;-81
2021/11/06 00:04:09;;;;;;;17.25;13.85;;;;;;;8.74;69.09;101169.59;4977017;28;97044;-81
2021/11/06 00:06:35;;;;;;;14.80;13.05;;;;;;;8.68;68.71;101164.44;4986039;28;97190;-82
2021/11/06 00:09:00;;;;;;;15.73;13.15;;;;;;;8.82;68.63;101168.59;4973805;28;101226;-83
2021/11/06 00:11:26;;;;;;;16.33;13.40;;;;;;;8.77;68.84;101172.16;5012982;28;98024;-82
2021/11/06 00:13:52;;;;;;;13.73;11.55;;;;;;;8.82;68.64;101172.97;4982901;28;97153;-81
2021/11/06 00:16:17;;;;;;;15.82;11.63;;;;;;;8.77;69.09;101174.78;4999431;28;97237;-81
2021/11/06 00:18:43;;;;;;;12.30;10.95;;;;;;;8.79;68.65;101171.25;4998973;28;101738;-81
2021/11/06 00:21:09;;;;;;;11.13;9.60;;;;;;;8.77;68.45;101175.66;5014549;28;97311;-81
2021/11/06 00:23:34;;;;;;;12.10;10.85;;;;;;;8.80;68.79;101174.75;4981296;28;96765;-81
2021/11/06 00:26:00;;;;;;;10.52;9.40;;;;;;;8.83;68.28;101172.09;4999935;28;96874;-81
2021/11/06 00:28:25;;;;;;;12.05;10.85;;;;;;;8.85;68.66;101175.56;4985240;28;101461;-82
2021/11/06 00:30:51;;;;;;;15.70;11.63;;;;;;;8.85;68.41;101167.69;4999842;28;99236;-82
2021/11/06 00:33:17;;;;;;;12.70;11.50;;;;;;;8.96;68.13;101181.50;4986397;28;96883;-82
2021/11/06 00:35:42;;;;;;;12.57;11.32;;;;;;;8.92;68.54;101176.31;4997444;28;97002;-82
2021/11/06 00:38:08;;;;;;;12.00;10.80;;;;;;;8.89;68.44;101171.13;4997535;28;101493;-81
2021/11/06 00:40:34;;;;;;;11.95;10.80;;;;;;;8.78;68.45;101161.66;4996313;28;98373;-81
2021/11/06 00:43:00;;;;;;;11.32;10.23;;;;;;;8.89;68.54;101182.47;4999071;28;97242;-81
2021/11/06 00:45:25;;;;;;;11.23;10.13;;;;;;;8.83;68.25;101172.09;4995373;28;96879;-82
2021/11/06 00:47:51;;;;;;;11.18;10.07;;;;;;;8.94;68.19;101185.91;4981606;28;101261;-82
2021/11/06 00:50:17;;;;;;;10.18;9.20;;;;;;;8.96;67.87;101183.25;4993309;28;98971;-81
2021/11/06 00:52:44;;;;;;;10.40;9.43;;;;;;;9.04;67.65;101182.25;4981538;28;97296;-83
2021/11/06 00:55:10;;;;;;;11.20;10.15;;;;;;;9.05;68.02;101183.16;4999954;28;96896;-81
2021/11/06 00:57:36;;;;;;;13.80;10.90;;;;;;;9.03;68.24;101182.28;4979289;28;99850;-82
2021/11/06 01:00:06;;;;;;;10.82;9.93;;;;;;;8.96;68.06;101181.50;4979430;28;101263;-81
2021/11/06 01:02:32;;;;;;;10.35;9.45;;;;;;;8.93;68.11;101175.44;4985163;28;98057;-82
2021/11/06 01:04:57;;;;;;;11.40;10.43;;;;;;;8.93;67.98;101180.66;4979944;28;98003;-81
2021/11/06 01:07:23;;;;;;;12.10;10.20;;;;;;;8.95;68.05;101186.75;4985940;28;97864;-82
2021/11/06 01:09:48;;;;;;;11.38;10.38;;;;;;;8.87;68.52;101180.75;4994743;28;101500;-81
2021/11/06 01:12:14;;;;;;;12.02;10.93;;;;;;;8.84;68.22;101172.06;4998778;28;96671;-82
2021/11/06 01:14:40;;;;;;;10.98;10.00;;;;;;;8.99;68.09;101188.47;4990394;28;96995;-81
2021/11/06 01:17:05;;;;;;;11.80;10.63;;;;;;;8.94;67.93;101183.28;4993327;28;98511;-81
2021/11/06 01:19:31;;;;;;;11.90;10.85;;;;;;;8.90;67.92;101180.72;4992467;28;101389;-81
2021/11/06 01:21:56;;;;;;;11.75;10.68;;;;;;;8.96;68.07;101194.63;4997138;28;96836;-81
2021/11/06 01:24:22;;;;;;;10.85;10.05;;;;;;;8.94;67.84;101183.28;4975015;28;97772;-82
2021/11/06 01:26:47;;;;;;;10.75;9.18;;;;;;;8.86;68.09;101179.91;4986774;28;97955;-81
2021/11/06 01:29:13;;;;;;;12.00;10.88;;;;;;;8.91;68.50;101187.69;5011763;28;101641;-81
2021/11/06 01:31:38;;;;;;;11.20;10.10;;;;;;;8.90;68.22;101197.31;4986450;28;96825;-81
2021/11/06 01:34:04;;;;;;;11.43;10.32;;;;;;;8.89;68.43;101198.19;4995266;28;97991;-81
2021/11/06 01:36:29;;;;;;;15.30;11.88;;;;;;;9.05;67.90;101204.97;4996958;28;101538;-83
2021/11/06 01:38:55;;;;;;;11.98;10.95;;;;;;;8.96;67.62;101197.22;4997435;28;101631;-82
2021/11/06 01:41:20;;;;;;;12.18;10.55;;;;;;;8.88;67.95;101191.22;5015140;28;96802;-81
2021/11/06 01:43:48;;;;;;;12.15;10.90;;;;;;;8.95;68.23;101199.84;4997860;28;97252;-81
2021/11/06 01:46:14;;;;;;;12.57;11.30;;;;;;;8.94;67.59;101195.50;4998704;28;101676;-81
2021/11/06 01:48:39;;;;;;;11.93;10.73;;;;;;;8.93;67.66;101188.53;4992561;28;101613;-81
2021/11/06 01:51:05;;;;;;;12.48;11.13;;;;;;;8.67;67.72;101166.19;4989812;28;96829;-81
2021/11/06 01:53:32;;;;;;;13.05;11.82;;;;;;;8.80;67.92;101204.41;4978840;28;97323;-81
2021/11/06 01:55:58;;;;;;;12.10;11.00;;;;;;;8.75;68.26;101200.09;5014785;28;99940;-79
2021/11/06 01:58:26;;;;;;;13.70;10.82;;;;;;;8.78;68.08;101197.44;4994767;28;101409;-81
2021/11/06 02:00:51;;;;;;;12.18;10.93;;;;;;;8.46;67.75;101150.75;4994901;28;97312;-81
2021/11/06 02:03:18;;;;;;;10.95;10.05;;;;;;;8.68;67.88;101191.47;4989873;28;97103;-81
2021/11/06 02:05:44;;;;;;;11.45;7.97;;;;;;;8.72;67.72;101198.38;5027788;28;97679;-81
2021/11/06 02:08:13;;;;;;;10.63;9.70;;;;;;;8.71;67.75;101195.81;4990517;28;98426;-80
2021/11/06 02:10:41;;;;;;;11.00;10.07;;;;;;;8.65;67.69;101194.13;5014963;28;96734;-81
2021/11/06 02:13:07;;;;;;;11.45;10.38;;;;;;;8.59;67.87;101191.59;4992415;28;96778;-81
2021/11/06 02:15:33;;;;;;;11.02;9.70;;;;;;;8.75;67.16;101193.13;4977829;28;101920;-82
2021/11/06 02:17:58;;;;;;;14.57;9.88;;;;;;;8.69;67.15;101203.66;4977671;28;101582;-81
2021/11/06 02:20:24;;;;;;;10.35;9.48;;;;;;;8.60;67.46;101217.72;4981542;28;96874;-82
2021/11/06 02:22:51;;;;;;;10.48;9.48;;;;;;;8.57;67.80;101202.06;4997004;28;97355;-82
2021/11/06 02:25:16;;;;;;;11.18;10.00;;;;;;;8.50;67.79;101212.63;4981022;28;102051;-81
2021/11/06 02:27:43;;;;;;;12.65;11.38;;;;;;;8.48;67.26;101199.56;4997749;28;98832;-82
2021/11/06 02:30:11;;;;;;;13.98;12.55;;;;;;;8.49;67.63;101203.03;4986824;28;97102;-81
2021/11/06 02:32:36;;;;;;;13.75;12.30;;;;;;;8.40;67.98;101198.78;4977141;28;97337;-82
2021/11/06 02:35:03;;;;;;;13.55;12.07;;;;;;;8.30;67.71;101191.88;4993148;28;98096;-81
2021/11/06 02:37:29;;;;;;;12.57;11.38;;;;;;;8.28;67.98;101185.78;5004223;28;97820;-82
2021/11/06 02:39:55;;;;;;;13.73;11.73;;;;;;;8.33;67.50;101205.78;4994690;28;98640;-81
2021/11/06 02:42:21;;;;;;;13.10;11.43;;;;;;;8.29;67.70;101203.22;4979018;28;96783;-82
2021/11/06 02:44:47;;;;;;;13.48;12.05;;;;;;;8.27;67.91;101208.47;4981021;28;101447;-81
2021/11/06 02:47:13;;;;;;;16.25;12.18;;;;;;;8.22;67.60;101199.81;4981291;28;101562;-82
2021/11/06 02:49:39;;;;;;;14.20;12.98;;;;;;;8.19;67.54;101196.38;5004904;28;96679;-81
2021/11/06 02:52:05;;;;;;;13.75;12.35;;;;;;;8.23;67.54;101209.41;4980599;28;96951;-81
2021/11/06 02:54:31;;;;;;;13.77;12.48;;;;;;;8.13;68.11;101208.63;4980621;28;101556;-81
2021/11/06 02:56:57;;;;;;;12.73;11.27;;;;;;;8.17;67.69;101219.91;5014435;28;97991;-81
2021/11/06 02:59:23;;;;;;;14.40;13.10;;;;;;;8.13;67.55;101200.78;4989212;28;96748;-82
2021/11/06 03:01:49;;;;;;;14.30;12.07;;;;;;;8.10;67.92;101213.88;5013594;28;97718;-86
2021/11/06 03:04:15;;;;;;;14.43;12.18;;;;;;;8.05;67.82;101212.19;5014462;28;97946;-82
2021/11/06 03:06:40;;;;;;;13.73;12.32;;;;;;;8.04;67.91;101213.06;4988227;27;101652;-82
2021/11/06 03:09:06;;;;;;;13.60;12.25;;;;;;;7.93;67.47;101202.72;4998189;28;96825;-81
2021/11/06 03:11:33;;;;;;;12.63;11.43;;;;;;;8.06;67.35;101216.56;5011618;28;96959;-81
2021/11/06 03:14:01;;;;;;;13.80;11.60;;;;;;;8.13;67.30;101218.22;5012629;28;98024;-82
2021/11/06 03:16:26;;;;;;;10.85;9.75;;;;;;;8.04;67.14;101227.00;4995476;28;97410;-81
2021/11/06 03:18:52;;;;;;;11.57;10.48;;;;;;;8.00;67.46;101227.03;5010786;28;97109;-82
2021/11/06 03:21:19;;;;;;;9.95;9.13;;;;;;;8.10;66.74;101228.72;4994407;28;97220;-81
2021/11/06 03:23:45;;;;;;;11.55;10.45;;;;;;;8.02;66.33;101222.66;4993491;28;98563;-81
2021/11/06 03:26:10;;;;;;;11.25;10.45;;;;;;;7.93;66.29;101221.00;4998132;28;100608;-80
2021/11/06 03:28:36;;;;;;;10.77;9.88;;;;;;;7.88;66.46;101222.78;5015095;28;96717;-82
2021/11/06 03:31:01;;;;;;;10.05;9.20;;;;;;;7.99;66.11;101230.53;4974526;28;96867;-82
2021/11/06 03:33:27;;;;;;;10.27;8.63;;;;;;;7.99;65.79;101233.16;4989768;28;100987;-82
2021/11/06 03:35:53;;;;;;;11.30;9.90;;;;;;;7.89;65.93;101224.53;5000380;28;101110;-84
2021/11/06 03:38:18;;;;;;;9.98;9.07;;;;;;;8.00;65.38;101233.16;4999425;28;96767;-82
2021/11/06 03:40:44;;;;;;;10.27;9.27;;;;;;;8.04;65.14;101226.16;5000987;28;96997;-81
2021/11/06 03:43:10;;;;;;;11.02;10.02;;;;;;;7.94;65.05;101230.56;4983353;28;101357;-82
2021/11/06 03:45:36;;;;;;;9.27;8.57;;;;;;;7.93;65.66;101231.47;4996982;28;101086;-82
2021/11/06 03:48:03;;;;;;;11.63;9.80;;;;;;;7.94;65.25;101228.84;4983829;28;97000;-81
2021/11/06 03:50:28;;;;;;;10.52;9.52;;;;;;;7.88;65.14;101225.41;4991570;28;97116;-80
2021/11/06 03:52:54;;;;;;;9.95;9.00;;;;;;;7.83;64.84;101228.06;4992785;28;101754;-83
2021/11/06 03:55:20;;;;;;;9.98;9.13;;;;;;;7.93;65.10;101234.94;5001216;28;97897;-82
2021/11/06 03:57:45;;;;;;;10.23;8.77;;;;;;;7.94;64.73;101231.47;5000680;28;97434;-82
2021/11/06 04:00:13;;;;;;;9.90;8.93;;;;;;;7.82;65.14;101233.28;4983444;28;97168;-80
2021/11/06 04:02:40;;;;;;;11.57;9.77;;;;;;;7.74;65.11;101225.53;5016595;28;97915;-81
2021/11/06 04:05:06;;;;;;;9.57;8.63;;;;;;;7.70;65.43;101229.03;4999188;28;101800;-82
2021/11/06 04:07:31;;;;;;;15.32;8.73;;;;;;;7.72;65.31;101230.75;4983665;28;97230;-82
2021/11/06 04:09:58;;;;;;;9.38;8.57;;;;;;;7.68;65.51;101236.03;4990746;28;97210;-82
2021/11/06 04:12:23;;;;;;;9.52;8.57;;;;;;;7.61;65.11;101231.72;4975016;28;101622;-85
2021/11/06 04:14:49;;;;;;;11.02;8.85;;;;;;;7.51;65.08;101224.84;4988520;28;101657;-82
2021/11/06 04:17:15;;;;;;;8.30;7.60;;;;;;;7.59;65.32;101226.53;4996235;28;96806;-82
2021/11/06 04:19:40;;;;;;;8.82;8.10;;;;;;;7.56;64.86;101218.69;4997312;28;97003;-81
2021/11/06 04:22:06;;;;;;;10.23;9.13;;;;;;;7.61;65.03;101235.19;5013430;28;98591;-81
2021/11/06 04:24:32;;;;;;;8.88;8.07;;;;;;;7.56;64.67;101231.75;5013879;28;97488;-83
2021/11/06 04:26:58;;;;;;;7.95;7.25;;;;;;;7.55;65.16;101226.53;5009412;28;97041;-82
2021/11/06 04:29:23;;;;;;;9.25;8.13;;;;;;;7.53;65.00;101238.75;4998255;28;97041;-83
2021/11/06 04:31:49;;;;;;;7.80;7.10;;;;;;;7.55;65.01;101235.25;4996792;28;101724;-81
2021/11/06 04:34:15;;;;;;;8.27;7.60;;;;;;;7.59;64.72;101239.59;4999745;28;97850;-81
2021/11/06 04:36:41;;;;;;;9.05;8.25;;;;;;;7.58;64.41;101229.13;5016554;28;96710;-81
2021/11/06 04:39:07;;;;;;;9.30;8.52;;;;;;;7.62;64.37;101231.72;4999474;28;97737;-81
2021/11/06 04:41:32;;;;;;;9.07;8.38;;;;;;;7.65;64.33;101244.78;4969982;28;101481;-81
2021/11/06 04:43:58;;;;;;;9.55;8.55;;;;;;;7.54;64.69;101236.13;4983222;28;101948;-82
2021/11/06 04:46:24;;;;;;;9.48;8.65;;;;;;;7.55;64.77;101232.63;4999743;28;96981;-82
2021/11/06 04:48:49;;;;;;;10.43;8.70;;;;;;;7.54;65.19;101249.19;4999933;28;96849;-81
2021/11/06 04:51:15;;;;;;;9.35;8.55;;;;;;;7.52;64.81;101234.41;4985275;28;102165;-81
2021/11/06 04:53:41;;;;;;;9.52;8.73;;;;;;;7.61;64.73;101248.25;4999303;28;101390;-82
2021/11/06 04:56:06;;;;;;;12.35;8.77;;;;;;;7.52;64.29;101242.25;4991145;28;97467;-81
2021/11/06 04:58:32;;;;;;;7.97;7.28;;;;;;;7.57;64.47;101237.88;4979830;28;97006;-82
2021/11/06 05:00:57;;;;;;;9.73;8.82;;;;;;;7.54;64.01;101248.34;4995401;28;101441;-82
2021/11/06 05:03:23;;;;;;;10.55;9.05;;;;;;;7.46;64.65;101246.63;5007843;28;101342;-82
2021/11/06 05:05:48;;;;;;;9.50;8.70;;;;;;;7.41;64.49;101230.09;4988388;28;97030;-81
2021/11/06 05:08:14;;;;;;;9.63;8.70;;;;;;;7.36;64.67;101247.56;4995888;28;97386;-81
2021/11/06 05:10:40;;;;;;;10.43;9.32;;;;;;;7.35;64.88;101247.56;5010436;28;101451;-82
2021/11/06 05:13:07;;;;;;;9.63;8.90;;;;;;;7.31;64.74;101236.28;4998826;28;101855;-82
2021/11/06 05:15:33;;;;;;;10.35;8.75;;;;;;;7.35;64.72;101251.03;4985841;28;97043;-81
2021/11/06 05:17:59;;;;;;;10.60;9.70;;;;;;;7.40;64.37;101243.19;4982350;28;97076;-82
2021/11/06 05:20:26;;;;;;;10.90;9.85;;;;;;;7.49;64.58;101259.66;4994754;28;101300;-82
2021/11/06 05:22:51;;;;;;;12.68;9.35;;;;;;;7.48;64.48;101267.53;4989047;28;99119;-82
2021/11/06 05:25:17;;;;;;;10.30;9.40;;;;;;;7.40;64.52;101272.78;4999677;28;96732;-82
2021/11/06 05:27:42;;;;;;;10.57;9.52;;;;;;;7.50;64.80;101273.59;4975031;28;97565;-82
2021/11/06 05:30:10;;;;;;;11.13;10.00;;;;;;;7.54;64.84;101277.94;4995568;28;101176;-82
2021/11/06 05:32:36;;;;;;;9.35;8.30;;;;;;;7.51;64.49;101266.66;4990662;28;101729;-83
2021/11/06 05:35:04;;;;;;;11.00;10.00;;;;;;;7.53;64.54;101277.94;4989157;28;97195;-82
2021/11/06 05:37:30;;;;;;;11.18;9.98;;;;;;;7.48;64.33;101277.97;4985006;28;97082;-82
2021/11/06 05:39:56;;;;;;;7.88;7.28;;;;;;;7.47;64.47;101284.94;4997634;28;98059;-84
2021/11/06 05:42:22;;;;;;;11.38;10.27;;;;;;;7.48;64.22;101270.16;4981615;28;101542;-83
2021/11/06 05:44:47;;;;;;;10.77;9.85;;;;;;;7.57;64.08;101277.91;4980448;28;97328;-82
2021/11/06 05:47:13;;;;;;;9.40;8.60;;;;;;;7.54;63.79;101283.16;4997388;28;96676;-82
2021/11/06 05:49:39;;;;;;;13.07;10.32;;;;;;;7.52;63.54;101277.06;4974413;28;101760;-83
2021/11/06 05:52:05;;;;;;;11.25;10.35;;;;;;;7.51;63.54;101271.88;4995460;28;97369;-82
2021/11/06 05:54:31;;;;;;;10.30;8.57;;;;;;;7.56;63.46;101288.38;4995477;28;96865;-80
2021/11/06 05:56:56;;;;;;;10.30;9.50;;;;;;;7.56;63.60;101290.97;5007577;28;97362;-84
2021/11/06 05:59:22;;;;;;;12.80;10.40;;;;;;;7.48;63.85;101277.97;4972099;28;101250;-81
2021/11/06 06:01:48;;;;;;;12.20;10.55;;;;;;;7.50;63.89;101289.28;4992931;28;101690;-80
2021/11/06 06:04:14;;;;;;;16.40;9.68;;;;;;;7.44;63.72;101291.91;4971982;28;97114;-81
2021/11/06 06:06:39;;;;;;;14.73;10.20;;;;;;;7.42;63.98;101296.31;4989781;28;97557;-82
2021/11/06 06:09:05;;;;;;;10.63;9.50;;;;;;;7.30;63.70;101272.84;4991179;28;101208;-81
2021/11/06 06:11:31;;;;;;;10.05;9.07;;;;;;;7.42;63.86;101306.75;4988553;28;98189;-82
2021/11/06 06:13:57;;;;;;;10.10;8.98;;;;;;;7.42;63.86;101306.75;4995923;28;97112;-86
2021/11/06 06:16:23;;;;;;;11.90;9.20;;;;;;;7.52;63.69;101313.66;4995128;28;96752;-84
2021/11/06 06:18:49;;;;;;;16.38;9.45;;;;;;;7.40;63.76;101298.06;4998020;28;97924;-83
2021/11/06 06:21:14;;;;;;;16.05;9.07;;;;;;;7.45;63.69;101314.56;5000887;28;97624;-82
2021/11/06 06:23:41;;;;;;;10.43;8.57;;;;;;;7.39;64.11;101318.09;4995672;28;96783;-81
2021/11/06 06:26:06;;;;;;;17.02;9.02;;;;;;;7.38;64.16;101307.63;4975477;28;98114;-82
2021/11/06 06:28:32;;;;;;;18.58;9.95;;;;;;;7.38;63.93;101292.81;4992436;28;98980;-82
2021/11/06 06:30:57;;;;;;;14.02;10.10;;;;;;;7.56;63.84;101314.50;4991859;28;97712;-82
2021/11/06 06:33:23;;;;;;;17.77;9.50;;;;;;;7.57;63.56;101313.63;4976008;28;97281;-82
2021/11/06 06:35:49;;;;;;;11.38;8.82;;;;;;;7.55;63.70;101324.09;4999216;28;96931;-82
2021/11/06 06:38:14;;;;;;;13.82;8.07;;;;;;;7.58;63.83;101323.19;4990250;28;98530;-82
2021/11/06 06:40:40;;;;;;;13.00;9.57;;;;;;;7.58;63.75;101324.06;5011369;28;98363;-81
2021/11/06 06:43:06;;;;;;;10.68;9.43;;;;;;;7.65;63.78;101324.88;4976954;28;99610;-82
2021/11/06 06:45:31;;;;;;;10.88;9.80;;;;;;;7.70;63.63;101328.34;5001140;28;97933;-82
2021/11/06 06:47:57;;;;;;;15.60;9.63;;;;;;;7.78;63.19;101326.56;4970709;28;102155;-84
2021/11/06 06:50:23;;;;;;;14.68;10.10;;;;;;;7.71;63.03;101319.66;4981675;28;100994;-81
2021/11/06 06:52:49;;;;;;;13.70;9.73;;;;;;;7.81;63.12;101328.28;4984625;28;97984;-84
2021/11/06 06:55:15;;;;;;;11.27;9.35;;;;;;;8.39;61.92;101328.72;4989867;28;97892;-82
2021/11/06 06:57:42;;;;;;;11.20;10.00;;;;;;;9.82;58.20;101334.88;4984793;28;97439;-82
2021/11/06 07:00:10;;;;;;;11.80;9.75;;;;;;;10.64;56.26;101337.94;5016480;27;99375;-83
2021/11/06 07:02:36;;;;;;;14.02;10.15;;;;;;;11.06;54.49;101334.53;4989711;28;97872;-83
2021/11/06 07:05:01;;;;;;;15.15;10.95;;;;;;;11.43;53.44;101332.03;4991034;28;97820;-83
2021/11/06 07:07:27;;;;;;;14.35;10.75;;;;;;;11.65;53.37;101321.88;4971907;28;102703;-82
2021/11/06 07:09:53;;;;;;;15.05;11.80;;;;;;;12.83;50.57;101336.56;4981895;28;101064;-84
2021/11/06 07:12:18;;;;;;;17.38;11.98;;;;;;;13.30;49.26;101327.31;4982115;28;99410;-84
2021/11/06 07:14:44;;;;;;;15.57;10.63;;;;;;;13.40;49.25;101332.31;4966930;28;97635;-82
2021/11/06 07:17:11;;;;;;;11.48;10.27;;;;;;;13.22;49.24;101323.16;4984894;28;100427;-81
2021/11/06 07:19:36;;;;;;;13.45;10.63;;;;;;;13.29;49.77;101332.63;4994067;28;98173;-83
2021/11/06 07:22:03;;;;;;;11.90;9.82;;;;;;;13.49;49.55;101326.75;4972958;28;97933;-84
2021/11/06 07:24:28;;;;;;;14.43;9.02;;;;;;;13.54;48.89;101332.78;4974583;28;98025;-82
2021/11/06 07:26:54;;;;;;;10.68;8.23;;;;;;;13.86;48.71;101339.69;4984443;28;102012;-82
2021/11/06 07:29:20;;;;;;;12.65;9.18;;;;;;;13.94;48.27;101337.69;4999319;28;97994;-82
2021/11/06 07:31:46;;;;;;;9.30;8.10;;;;;;;14.13;47.97;101337.06;4985894;28;97391;-81
2021/11/06 07:34:11;;;;;;;13.02;8.98;;;;;;;14.24;47.76;101330.53;4982632;28;97920;-82
2021/11/06 07:36:37;;;;;;;14.43;9.45;;;;;;;14.52;47.57;101334.06;4976890;28;100999;-81
2021/11/06 07:39:03;;;;;;;10.32;8.73;;;;;;;14.65;47.34;101333.56;4982348;28;97761;-83
2021/11/06 07:41:29;;;;;;;9.20;8.40;;;;;;;14.97;47.20;101336.00;4981789;28;97244;-80
2021/11/06 07:43:55;;;;;;;11.57;9.10;;;;;;;14.98;46.71;101341.25;4977725;28;97536;-82
2021/11/06 07:46:22;;;;;;;9.10;8.25;;;;;;;15.32;46.55;101340.84;4986568;28;97972;-82
2021/11/06 07:48:49;;;;;;;9.85;8.93;;;;;;;15.59;45.97;101333.63;4988772;28;101053;-82
2021/11/06 07:51:15;;;;;;;8.85;7.97;;;;;;;15.92;45.56;101327.97;4973166;28;97375;-81
2021/11/06 07:53:42;;;;;;;11.07;8.65;;;;;;;16.13;44.85;101342.09;4975384;28;97501;-80
2021/11/06 07:56:07;;;;;;;9.73;8.73;;;;;;;16.50;44.49;101336.13;4974934;28;101009;-80
2021/11/06 07:58:33;;;;;;;12.50;9.35;;;;;;;16.55;43.88;101335.06;4973194;28;101518;-79
2021/11/06 08:01:00;;;;;;;9.88;8.85;;;;;;;16.97;43.12;101337.69;4975849;28;97344;-84
2021/11/06 08:03:26;;;;;;;9.95;8.52;;;;;;;17.25;42.54;101333.75;4977119;28;96941;-82
2021/11/06 08:05:52;;;;;;;10.35;8.40;;;;;;;17.32;42.88;101341.38;4986718;28;101398;-81
2021/11/06 08:08:18;;;;;;;12.48;8.88;;;;;;;17.59;42.92;101335.72;4980226;28;101464;-83
2021/11/06 08:10:44;;;;;;;11.20;9.07;;;;;;;17.96;42.03;101345.47;4990109;28;97285;-83
2021/11/06 08:13:11;;;;;;;10.73;9.77;;;;;;;18.44;41.31;101345.75;4978815;28;97131;-84
2021/11/06 08:15:37;;;;;;;11.80;10.32;;;;;;;18.78;40.07;101347.59;5003353;28;98198;-82
2021/11/06 08:18:03;;;;;;;9.30;8.38;;;;;;;19.23;39.68;101351.41;4980089;28;101588;-83
2021/11/06 08:20:29;;;;;;;9.25;8.30;;;;;;;20.07;38.76;101341.41;4995106;28;97223;-83
2021/11/06 08:22:55;;;;;;;9.00;8.10;;;;;;;20.68;37.65;101333.44;4995976;28;97098;-83
2021/11/06 08:25:22;;;;;;;10.20;9.20;;;;;;;20.99;36.11;101340.44;4995976;28;100848;-82
2021/11/06 08:27:50;;;;;;;8.90;7.60;;;;;;;21.82;35.53;101343.25;5007626;28;100876;-84
2021/11/06 08:30:21;;;;;;;9.95;7.38;;;;;;;23.07;34.02;101341.94;4979716;28;97442;-85
2021/11/06 08:32:48;;;;;;;15.10;10.00;;;;;;;23.56;32.81;101341.13;5004852;28;96901;-83
2021/11/06 08:35:13;;;;;;;12.90;10.88;;;;;;;23.91;32.27;101343.91;4983740;28;100461;-81
2021/11/06 08:37:47;;;;;;;14.38;9.52;;;;;;;24.23;31.59;101354.06;4979069;28;101253;-92
2021/11/06 08:40:13;;;;;;;15.98;10.18;;;;;;;24.39;30.74;101349.22;5008361;28;97360;-88
2021/11/06 08:42:39;;;;;;;9.95;9.20;;;;;;;24.41;30.57;101341.09;4997136;28;97933;-86
2021/11/06 08:45:06;;;;;;;10.18;9.15;;;;;;;24.44;30.80;101327.47;4978090;28;99919;-87
2021/11/06 08:47:33;;;;;;;11.05;10.00;;;;;;;24.64;30.22;101317.88;4999038;28;100750;-87
2021/11/06 08:49:59;;;;;;;9.93;9.13;;;;;;;24.85;30.45;101342.19;4989050;28;97734;-90
2021/11/06 08:52:25;;;;;;;11.00;9.90;;;;;;;25.60;29.02;101329.97;4987392;28;98467;-91
2021/11/06 08:54:51;;;;;;;9.32;8.63;;;;;;;25.44;29.56;101327.69;4992494;28;101694;-89
2021/11/06 08:57:21;;;;;;;;;;;;;;;25.30;29.56;101332.34;4981197;28;98139;-87
2021/11/06 08:59:54;;;;;;;10.57;9.45;;;;;;;25.70;28.94;101330.94;4974644;28;99006;-86
2021/11/06 09:02:20;;;;;;;9.77;8.63;;;;;;;26.10;28.56;101338.44;4998705;28;98401;-86
2021/11/06 09:04:49;;;;;;;10.65;9.32;;;;;;;26.30;28.41;101331.38;4988586;28;101747;-84
2021/11/06 09:07:16;;;;;;;11.00;9.95;;;;;;;26.41;28.39;101336.69;4970802;28;101587;-85
2021/11/06 09:09:42;;;;;;;11.05;10.15;;;;;;;26.23;28.13;101332.88;4997840;28;98850;-86
2021/11/06 09:12:09;;;;;;;9.82;9.02;;;;;;;26.60;28.26;101327.94;4983666;28;98455;-84
2021/11/06 09:14:35;;;;;;;10.63;9.70;;;;;;;26.53;27.67;101329.44;4999435;28;98456;-83
2021/11/06 09:17:01;;;;;;;8.63;7.57;;;;;;;26.77;28.37;101334.56;4969560;28;101712;-81
2021/11/06 09:19:26;;;;;;;9.18;8.38;;;;;;;26.45;28.26;101330.06;5016821;28;97181;-83
2021/11/06 09:21:52;;;;;;;8.63;7.90;;;;;;;26.43;28.47;101338.25;4989877;27;96933;-84
2021/11/06 09:24:18;;;;;;;9.65;8.23;;;;;;;25.80;29.34;101341.78;4999456;28;100460;-84
2021/11/06 09:26:45;;;;;;;9.57;8.73;;;;;;;25.92;29.34;101336.31;4986506;28;101946;-83
2021/11/06 09:29:12;;;;;;;9.82;9.02;;;;;;;24.99;30.13;101354.53;4972827;28;99396;-84
2021/11/06 09:31:39;;;;;;;9.02;8.23;;;;;;;23.02;32.64;101342.25;4980966;28;98099;-83
2021/11/06 09:34:05;;;;;;;9.80;8.95;;;;;;;23.07;32.66;101341.06;4968883;28;101109;-85
2021/11/06 09:36:32;;;;;;;9.65;8.75;;;;;;;21.96;34.28;101345.84;4986403;28;102568;-80
2021/11/06 09:39:01;;;;;;;9.70;8.88;;;;;;;21.21;35.87;101351.50;4983898;28;97381;-79
2021/11/06 09:41:27;;;;;;;10.68;8.90;;;;;;;21.50;35.66;101347.97;4961478;28;98032;-81
2021/11/06 09:43:52;;;;;;;11.93;9.20;;;;;;;21.64;35.22;101356.84;4987244;27;101452;-82
2021/11/06 09:46:18;;;;;;;9.32;8.48;;;;;;;20.37;36.95;101355.72;4980036;28;101666;-83
2021/11/06 09:48:45;;;;;;;8.90;8.10;;;;;;;19.56;38.43;101355.84;4990170;28;96955;-84
2021/11/06 09:51:12;;;;;;;9.68;8.38;;;;;;;18.95;39.95;101360.84;4975475;28;101034;-86
2021/11/06 09:53:44;;;;;;;8.70;7.90;;;;;;;20.05;38.01;101367.28;4993934;28;100637;-83
2021/11/06 09:56:13;;;;;;;9.30;8.50;;;;;;;19.03;39.34;101362.28;4972434;28;101884;-84
2021/11/06 09:58:40;;;;;;;8.98;8.18;;;;;;;19.06;39.64;101362.97;4986858;28;98011;-83
2021/11/06 10:01:05;;;;;;;8.80;7.50;;;;;;;18.78;39.81;101360.88;4987400;28;97687;-85
2021/11/06 10:03:31;;;;;;;7.63;7.03;;;;;;;19.34;38.87;101361.47;5016361;28;97413;-86
2021/11/06 10:06:02;;;;;;;8.13;7.43;;;;;;;20.32;37.54;101356.81;4982990;28;101500;-85
2021/11/06 10:08:36;;;;;;;7.85;6.35;;;;;;;19.15;38.88;101358.94;4985440;28;98014;-85
2021/11/06 10:11:10;;;;;;;9.50;7.60;;;;;;;19.00;39.26;101350.84;4972967;28;97210;-82
2021/11/06 10:13:52;;;;;;;7.50;6.78;;;;;;;19.05;38.80;101347.91;4980087;28;98508;-82
2021/11/06 10:16:39;;;;;;;6.03;5.45;;;;;;;17.94;40.15;101306.63;4968455;28;101368;-85
2021/11/06 10:19:30;;;;;;;8.20;6.45;;;;;;;18.23;39.56;101350.34;4997786;28;101613;-86
2021/11/06 10:22:10;;;;;;;8.63;7.13;;;;;;;18.90;38.66;101344.28;4996108;28;101551;-79
2021/11/06 10:24:42;;;;;;;8.43;6.40;;;;;;;17.73;40.19;101341.22;5017203;28;97585;-79
2021/11/06 10:27:22;;;;;;;6.63;6.03;;;;;;;17.06;41.36;101350.53;4994787;28;101971;-79
2021/11/06 10:30:12;;;;;;;7.05;6.45;;;;;;;16.48;42.32;101347.72;4980419;28;99070;-79
2021/11/06 10:33:04;;;;;;;7.00;6.43;;;;;;;15.98;42.79;101338.31;4982509;27;98057;-85
2021/11/06 10:35:31;;;;;;;;;;;;;;;15.63;43.75;101337.03;4999039;28;98572;-77
2021/11/06 10:38:12;;;;;;;6.90;6.32;;;;;;;15.47;43.73;101334.09;4977215;28;100545;-79
2021/11/06 10:41:03;;;;;;;6.38;5.78;;;;;;;15.15;44.26;101337.94;4978491;28;101588;-79
2021/11/06 10:43:31;;;;;;;6.25;5.70;;;;;;;14.98;44.82;101338.59;4996872;28;97569;-80
2021/11/06 10:45:59;;;;;;;6.18;5.68;;;;;;;14.57;45.24;101335.59;4978402;28;102365;-80
2021/11/06 10:48:30;;;;;;;6.53;5.65;;;;;;;14.40;45.36;101311.53;4996438;28;101771;-79
2021/11/06 10:51:12;;;;;;;5.68;5.28;;;;;;;14.53;46.15;101335.78;4970767;27;99858;-79
2021/11/06 10:53:51;;;;;;;6.60;6.20;;;;;;;14.44;45.97;101334.28;4965158;28;97891;-80
2021/11/06 10:56:43;;;;;;;6.18;5.25;;;;;;;14.45;45.62;101336.84;4993072;28;102204;-80
2021/11/06 10:59:14;;;;;;;5.70;5.30;;;;;;;14.55;45.29;101329.53;4981112;28;98818;-79
2021/11/06 11:01:42;;;;;;;7.03;6.35;;;;;;;14.36;45.50;101333.66;4987837;28;97826;-79
2021/11/06 11:04:11;;;;;;;6.72;6.03;;;;;;;14.33;46.19;101326.72;4977732;28;98489;-80
2021/11/06 11:06:39;;;;;;;6.63;6.13;;;;;;;14.19;45.74;101313.97;5003380;28;97691;-83
2021/11/06 11:09:12;;;;;;;6.10;5.50;;;;;;;14.09;46.05;101272.09;4976278;28;99889;-83
2021/11/06 11:11:39;;;;;;;6.97;6.45;;;;;;;14.19;45.54;101277.00;4995987;27;98188;-81
2021/11/06 11:14:11;;;;;;;6.57;6.07;;;;;;;14.46;45.27;101308.69;5000812;27;98285;-81
2021/11/06 11:16:40;;;;;;;7.35;4.40;;;;;;;14.60;44.90;101316.13;4995625;28;100038;-82
2021/11/06 11:19:10;;;;;;;6.15;5.75;;;;;;;14.63;44.58;101309.00;4995890;28;101918;-82